Time;durP1;ratioP1;P1;durP2;ratioP2;P2;SDS_P1;SDS_P2;PMS_P1;PMS_P2;Temp;Humidity;BMP_temperature;BMP_pressure;BME280_temperature;BME280_humidity;BME280_pressure;Samples;Min_cycle;Max_cycle;Signal;HPM_P1;HPM_P2
2024/04/24 00:01:02;;;;;;;11.50;5.50;;;;;;;8.53;78.93;101209.19;5398072;26;20003;-60
2024/04/24 00:03:30;;;;;;;10.32;6.50;;;;;;;8.76;78.35;101203.78;5411003;26;20016;-59
2024/04/24 00:06:03;;;;;;;12.43;6.38;;;;;;;8.56;78.44;101211.38;5424910;26;20000;-56
2024/04/24 00:08:31;;;;;;;11.35;6.35;;;;;;;8.61;78.24;101208.59;5418592;26;20466;-60
2024/04/24 00:10:59;;;;;;;12.93;6.40;;;;;;;8.39;79.91;101206.31;5434499;26;20013;-61
2024/04/24 00:13:26;;;;;;;11.27;6.07;;;;;;;8.30;81.19;101202.53;5445543;26;19995;-60
2024/04/24 00:15:54;;;;;;;12.52;6.90;;;;;;;8.30;81.42;101194.28;5445074;26;20431;-60
2024/04/24 00:18:23;;;;;;;15.60;7.03;;;;;;;8.58;80.54;101188.00;5444684;26;19995;-59
2024/04/24 00:20:55;;;;;;;12.38;6.85;;;;;;;8.69;80.14;101186.81;5410817;26;20003;-61
2024/04/24 00:23:25;;;;;;;13.25;7.65;;;;;;;8.32;81.42;101186.59;5446783;26;20009;-60
2024/04/24 00:25:56;;;;;;;16.13;7.55;;;;;;;8.25;82.34;101180.63;5442918;26;20003;-60
2024/04/24 00:28:24;;;;;;;12.43;7.38;;;;;;;8.26;82.66;101179.53;5446857;26;20010;-60
2024/04/24 00:31:00;;;;;;;11.07;7.82;;;;;;;8.31;82.69;101176.72;5445584;26;19995;-61
2024/04/24 00:33:28;;;;;;;14.50;8.02;;;;;;;8.21;83.25;101171.28;5443470;26;19999;-60
2024/04/24 00:35:56;;;;;;;12.45;8.27;;;;;;;8.26;83.94;101160.31;5427249;26;19999;-59
2024/04/24 00:38:23;;;;;;;15.38;7.90;;;;;;;8.41;83.34;101170.31;5442770;26;20028;-61
2024/04/24 00:40:50;;;;;;;15.65;8.30;;;;;;;8.35;83.52;101168.75;5415927;26;20020;-62
2024/04/24 00:43:18;;;;;;;15.52;8.65;;;;;;;8.36;83.62;101162.13;5445398;26;20003;-66
2024/04/24 00:45:45;;;;;;;13.55;8.48;;;;;;;8.57;82.63;101156.19;5445235;26;19999;-61
2024/04/24 00:48:14;;;;;;;12.50;7.50;;;;;;;8.56;82.90;101154.53;5403963;26;20006;-60
2024/04/24 00:50:43;;;;;;;12.93;7.70;;;;;;;8.77;82.16;101147.72;5401225;26;19999;-59
2024/04/24 00:53:10;;;;;;;13.80;7.25;;;;;;;8.79;81.34;101142.75;5434224;26;20904;-62
2024/04/24 00:55:38;;;;;;;14.18;8.05;;;;;;;8.65;81.70;101150.06;5443739;26;19995;-61
2024/04/24 00:58:05;;;;;;;11.70;8.02;;;;;;;8.41;83.81;101143.69;5443321;26;20077;-59
2024/04/24 01:00:33;;;;;;;16.02;8.30;;;;;;;8.14;85.82;101154.34;5414236;26;20026;-60
2024/04/24 01:03:01;;;;;;;14.43;8.95;;;;;;;8.10;88.20;101142.31;5443119;26;20017;-61
2024/04/24 01:05:29;;;;;;;14.98;9.32;;;;;;;8.34;87.36;101140.47;5378336;26;20003;-62
2024/04/24 01:07:56;;;;;;;11.77;8.05;;;;;;;8.39;87.06;101145.91;5411724;26;20011;-59
2024/04/24 01:10:24;;;;;;;13.82;8.15;;;;;;;8.31;85.95;101138.31;5418548;26;20553;-61
2024/04/24 01:12:51;;;;;;;12.40;8.07;;;;;;;8.08;86.87;101144.50;5383652;26;20009;-60
2024/04/24 01:15:18;;;;;;;15.07;7.63;;;;;;;8.05;87.64;101136.84;5426099;26;19999;-59
2024/04/24 01:17:50;;;;;;;11.43;7.35;;;;;;;8.06;87.10;101132.16;5443450;26;20449;-59
2024/04/24 01:20:23;;;;;;;12.32;6.68;;;;;;;8.08;87.45;101138.19;5365530;26;20025;-59
2024/04/24 01:23:29;;;;;;;10.77;6.63;;;;;;;7.87;88.69;101123.81;5428402;26;19999;-59
2024/04/24 01:26:21;;;;;;;10.38;6.18;;;;;;;7.90;88.17;101123.25;5445123;26;20013;-60
2024/04/24 01:28:48;;;;;;;9.95;5.55;;;;;;;7.80;89.43;101126.91;5439768;26;20003;-59
2024/04/24 01:31:16;;;;;;;12.05;4.97;;;;;;;8.16;88.67;101129.38;5395444;26;20415;-59
2024/04/24 01:33:43;;;;;;;9.13;4.43;;;;;;;7.77;91.64;101127.47;5425218;26;20681;-60
2024/04/24 01:36:11;;;;;;;11.88;5.25;;;;;;;7.53;94.97;101125.72;5443575;26;19999;-59
2024/04/24 01:38:38;;;;;;;9.55;5.05;;;;;;;7.64;96.04;101122.59;5444868;26;20003;-61
2024/04/24 01:41:06;;;;;;;13.27;5.35;;;;;;;7.61;98.13;101133.31;5417701;26;19998;-59
2024/04/24 01:43:36;;;;;;;12.10;4.85;;;;;;;7.66;100.00;101125.06;5427971;26;20010;-62
2024/04/24 01:46:03;;;;;;;10.00;5.60;;;;;;;7.53;100.00;101117.47;5436823;26;19995;-60
2024/04/24 01:48:31;;;;;;;13.98;5.78;;;;;;;7.56;100.00;101123.22;5438552;26;20000;-61
2024/04/24 01:50:59;;;;;;;11.50;5.63;;;;;;;7.83;100.00;101120.00;5418536;26;20007;-61
2024/04/24 01:53:26;;;;;;;11.73;5.85;;;;;;;7.78;100.00;101123.63;5444733;26;20013;-61
2024/04/24 01:55:53;;;;;;;9.85;5.75;;;;;;;7.49;100.00;101119.16;5444998;26;20013;-61
2024/04/24 01:58:21;;;;;;;11.90;6.25;;;;;;;7.39;100.00;101117.25;5443395;26;19999;-59
2024/04/24 02:00:48;;;;;;;13.85;6.90;;;;;;;7.82;100.00;101116.47;5445080;26;20009;-61
2024/04/24 02:03:15;;;;;;;13.00;6.97;;;;;;;7.50;100.00;101123.50;5443605;26;19999;-60
2024/04/24 02:05:43;;;;;;;13.05;6.68;;;;;;;7.19;100.00;101124.78;5435758;26;20463;-60
2024/04/24 02:08:10;;;;;;;14.23;6.60;;;;;;;7.15;100.00;101120.97;5444073;26;19999;-61
2024/04/24 02:10:38;;;;;;;14.27;6.80;;;;;;;7.37;100.00;101111.28;5431574;26;20013;-59
2024/04/24 02:13:05;;;;;;;14.10;7.38;;;;;;;7.24;100.00;101113.78;5444063;26;20003;-59
2024/04/24 02:15:33;;;;;;;11.63;7.07;;;;;;;7.42;100.00;101103.03;5408572;26;20002;-61
2024/04/24 02:18:04;;;;;;;11.15;6.55;;;;;;;7.43;100.00;101101.91;5373617;26;20005;-58
2024/04/24 02:20:33;;;;;;;11.70;6.78;;;;;;;7.59;100.00;101097.16;5434529;26;19999;-59
2024/04/24 02:23:05;;;;;;;13.73;7.57;;;;;;;7.81;100.00;101098.34;5411292;26;20571;-60
2024/04/24 02:25:33;;;;;;;14.00;6.85;;;;;;;7.63;100.00;101098.22;5444958;26;20318;-60
2024/04/24 02:28:08;;;;;;;15.32;7.53;;;;;;;7.51;100.00;101093.09;5410677;26;19999;-60
2024/04/24 02:30:35;;;;;;;14.55;7.72;;;;;;;7.58;100.00;101093.56;5382617;26;20018;-60
2024/04/24 02:33:03;;;;;;;14.45;7.88;;;;;;;7.56;100.00;101089.50;5426045;26;19999;-61
2024/04/24 02:35:31;;;;;;;13.45;7.35;;;;;;;7.52;100.00;101091.16;5401657;26;20030;-61
2024/04/24 02:37:58;;;;;;;13.70;6.90;;;;;;;7.77;100.00;101093.75;5440908;26;20006;-59
2024/04/24 02:40:26;;;;;;;15.57;7.35;;;;;;;7.69;100.00;101086.94;5380149;26;21582;-60
2024/04/24 02:42:53;;;;;;;13.55;7.05;;;;;;;7.83;100.00;101087.91;5442773;26;20006;-59
2024/04/24 02:45:21;;;;;;;15.93;6.90;;;;;;;7.51;100.00;101095.00;5427284;26;20741;-60
2024/04/24 02:47:48;;;;;;;14.60;6.82;;;;;;;7.38;100.00;101090.16;5440549;26;20081;-60
2024/04/24 02:50:16;;;;;;;13.93;6.80;;;;;;;7.17;100.00;101099.59;5417838;26;20007;-61
2024/04/24 02:52:43;;;;;;;13.25;6.65;;;;;;;7.17;100.00;101092.19;5440541;26;20503;-59
2024/04/24 02:55:10;;;;;;;12.25;6.63;;;;;;;7.42;100.00;101083.84;5417674;26;20008;-59
2024/04/24 02:57:38;;;;;;;14.25;6.82;;;;;;;7.49;100.00;101089.00;5441105;26;20009;-61
2024/04/24 03:00:06;;;;;;;12.55;6.35;;;;;;;7.21;100.00;101078.75;5379531;26;20005;-59
2024/04/24 03:02:33;;;;;;;14.57;6.65;;;;;;;7.33;100.00;101080.06;5425871;26;20033;-60
2024/04/24 03:05:01;;;;;;;12.95;6.60;;;;;;;7.37;100.00;101085.78;5416857;26;20009;-60
2024/04/24 03:07:28;;;;;;;11.70;6.18;;;;;;;7.46;100.00;101086.84;5396401;26;20008;-58
2024/04/24 03:09:56;;;;;;;16.42;6.60;;;;;;;7.25;100.00;101085.31;5438472;26;20005;-58
2024/04/24 03:12:25;;;;;;;13.00;5.60;;;;;;;7.34;100.00;101073.47;5448989;26;20059;-60
2024/04/24 03:14:52;;;;;;;12.40;5.72;;;;;;;7.52;100.00;101074.72;5441539;26;20013;-61
2024/04/24 03:17:19;;;;;;;11.90;5.90;;;;;;;7.50;100.00;101071.44;5419229;26;20382;-60
2024/04/24 03:19:47;;;;;;;12.27;5.50;;;;;;;7.32;100.00;101067.44;5448683;26;20333;-59
2024/04/24 03:22:14;;;;;;;14.82;5.90;;;;;;;7.62;100.00;101069.97;5446235;26;20368;-60
2024/04/24 03:24:46;;;;;;;11.95;5.38;;;;;;;7.16;100.00;101060.44;5442599;26;20017;-60
2024/04/24 03:27:14;;;;;;;12.13;5.25;;;;;;;7.29;100.00;101054.31;5441720;26;20403;-61
2024/04/24 03:29:41;;;;;;;11.10;5.32;;;;;;;7.45;100.00;101064.06;5430328;26;20017;-61
2024/04/24 03:32:08;;;;;;;12.85;5.20;;;;;;;7.45;100.00;101055.03;5442035;26;20080;-61
2024/04/24 03:34:36;;;;;;;13.43;5.03;;;;;;;7.55;100.00;101064.00;5442774;26;20003;-61
2024/04/24 03:37:03;;;;;;;13.07;4.68;;;;;;;7.49;100.00;101059.69;5411161;26;19995;-61
2024/04/24 03:39:31;;;;;;;10.15;4.47;;;;;;;7.45;100.00;101055.84;5443089;26;20003;-62
2024/04/24 03:41:58;;;;;;;13.18;5.03;;;;;;;7.31;100.00;101054.03;5421533;26;19999;-61
2024/04/24 03:44:26;;;;;;;13.20;4.68;;;;;;;7.29;100.00;101045.25;5404067;26;20018;-62
2024/04/24 03:46:53;;;;;;;16.15;4.80;;;;;;;7.14;100.00;101054.41;5434656;26;19999;-61
2024/04/24 03:49:20;;;;;;;18.50;4.65;;;;;;;6.90;100.00;101050.72;5441457;26;20630;-62
2024/04/24 03:51:48;;;;;;;13.93;4.57;;;;;;;7.12;100.00;101045.66;5441909;26;20002;-62
2024/04/24 03:54:15;;;;;;;12.60;4.82;;;;;;;7.16;100.00;101054.13;5445739;26;19998;-60
2024/04/24 03:56:42;;;;;;;12.27;4.63;;;;;;;6.95;100.00;101038.91;5478081;26;20009;-61
2024/04/24 03:59:12;;;;;;;12.35;4.63;;;;;;;7.27;100.00;101037.34;5429361;26;20013;-64
2024/04/24 04:01:39;;;;;;;13.82;4.93;;;;;;;7.10;100.00;101044.28;5441753;26;20792;-61
2024/04/24 04:04:07;;;;;;;12.35;4.93;;;;;;;7.22;100.00;101037.38;5441144;26;20009;-61
2024/04/24 04:06:34;;;;;;;13.90;4.68;;;;;;;7.33;100.00;101043.59;5443134;26;20040;-61
2024/04/24 04:09:02;;;;;;;11.77;4.78;;;;;;;7.14;100.00;101050.84;5443624;26;20003;-61
2024/04/24 04:11:29;;;;;;;14.45;4.43;;;;;;;7.11;100.00;101041.28;5416082;26;20007;-61
2024/04/24 04:13:57;;;;;;;14.52;4.70;;;;;;;7.17;100.00;101045.63;5445760;26;19999;-61
2024/04/24 04:16:24;;;;;;;8.38;3.88;;;;;;;7.15;100.00;101041.53;5444467;26;19995;-61
2024/04/24 04:18:52;;;;;;;13.82;4.57;;;;;;;7.05;100.00;101045.16;5444693;26;20472;-61
2024/04/24 04:21:19;;;;;;;11.88;4.22;;;;;;;6.93;100.00;101041.09;5419912;26;20003;-61
2024/04/24 04:23:46;;;;;;;13.45;4.25;;;;;;;7.13;100.00;101046.47;5426821;26;20069;-61
2024/04/24 04:26:14;;;;;;;12.90;3.70;;;;;;;7.00;100.00;101044.34;5444842;26;20537;-61
2024/04/24 04:28:41;;;;;;;12.13;5.05;;;;;;;7.22;100.00;101047.53;5422948;26;19995;-60
2024/04/24 04:31:08;;;;;;;12.55;4.13;;;;;;;7.14;100.00;101056.31;5443431;26;20002;-61
2024/04/24 04:33:36;;;;;;;11.73;3.83;;;;;;;7.03;100.00;101057.47;5423304;26;20013;-61
2024/04/24 04:36:05;;;;;;;13.68;3.47;;;;;;;6.99;100.00;101049.00;5441277;26;19999;-61
2024/04/24 04:38:32;;;;;;;13.13;4.22;;;;;;;7.09;100.00;101053.63;5436622;26;20591;-62
2024/04/24 04:40:59;;;;;;;9.98;3.58;;;;;;;7.23;100.00;101046.41;5422358;26;19998;-61
2024/04/24 04:43:27;;;;;;;14.65;3.83;;;;;;;7.20;99.65;101049.72;5414814;26;20013;-62
2024/04/24 04:45:54;;;;;;;12.82;3.53;;;;;;;6.91;99.75;101055.06;5443612;26;20492;-60
2024/04/24 04:48:22;;;;;;;18.05;3.70;;;;;;;7.05;100.00;101058.00;5411762;26;19999;-62
2024/04/24 04:50:49;;;;;;;9.75;3.67;;;;;;;6.92;100.00;101056.72;5441440;26;19995;-64
2024/04/24 04:53:16;;;;;;;16.90;3.60;;;;;;;7.19;99.97;101059.84;5442505;26;20003;-62
2024/04/24 04:55:44;;;;;;;16.55;4.20;;;;;;;7.18;99.55;101058.22;5443073;26;19995;-64
2024/04/24 04:58:11;;;;;;;14.98;4.55;;;;;;;7.07;99.77;101062.13;5443310;26;20013;-63
2024/04/24 05:00:38;;;;;;;15.35;3.92;;;;;;;6.99;99.50;101059.94;5442571;26;19994;-61
2024/04/24 05:03:06;;;;;;;12.40;4.03;;;;;;;7.03;100.00;101055.56;5441637;26;20016;-61
2024/04/24 05:05:34;;;;;;;16.98;3.90;;;;;;;6.97;100.00;101061.34;5442119;26;20009;-61
2024/04/24 05:08:01;;;;;;;13.55;4.03;;;;;;;7.16;100.00;101048.66;5411947;26;20005;-62
2024/04/24 05:10:29;;;;;;;12.27;3.95;;;;;;;7.04;99.37;101046.25;5443528;26;20003;-62
2024/04/24 05:12:56;;;;;;;14.48;3.88;;;;;;;7.07;99.56;101044.84;5445338;26;20020;-61
2024/04/24 05:15:23;;;;;;;19.30;4.25;;;;;;;7.01;99.52;101049.53;5444498;26;19999;-61
2024/04/24 05:17:51;;;;;;;10.27;3.65;;;;;;;7.25;98.47;101049.69;5444170;26;20003;-61
2024/04/24 05:20:18;;;;;;;11.82;3.75;;;;;;;7.26;98.25;101052.16;5430268;26;20037;-61
2024/04/24 05:22:46;;;;;;;12.50;4.03;;;;;;;7.09;98.43;101046.22;5443952;26;19999;-61
2024/04/24 05:25:16;;;;;;;16.50;3.88;;;;;;;7.16;98.21;101048.66;5445558;26;20003;-61
2024/04/24 05:30:30;;;;;;;12.07;3.63;;;;;;;7.08;97.76;101049.25;5433262;26;19999;-61
2024/04/24 05:32:58;;;;;;;10.60;3.70;;;;;;;7.19;98.31;101048.91;5441707;26;20012;-60
2024/04/24 05:35:25;;;;;;;13.52;3.70;;;;;;;7.41;97.49;101052.03;5435191;26;20021;-60
2024/04/24 05:37:53;;;;;;;10.13;3.65;;;;;;;7.18;96.74;101046.44;5441426;26;19999;-62
2024/04/24 05:40:20;;;;;;;18.42;3.67;;;;;;;7.04;97.12;101046.25;5444638;26;20341;-61
2024/04/24 05:42:47;;;;;;;12.38;3.60;;;;;;;6.91;98.18;101037.81;5444334;26;20669;-61
2024/04/24 05:45:15;;;;;;;20.35;4.13;;;;;;;7.10;98.15;101039.63;5421372;26;20003;-62
2024/04/24 05:47:42;;;;;;;11.30;3.80;;;;;;;7.24;97.89;101042.56;5442672;26;20013;-63
2024/04/24 05:50:10;;;;;;;14.43;4.38;;;;;;;7.10;97.24;101036.91;5444422;26;19995;-61
2024/04/24 05:52:37;;;;;;;14.57;3.65;;;;;;;6.90;98.99;101041.66;5453504;26;19994;-62
2024/04/24 05:55:05;;;;;;;15.38;4.15;;;;;;;7.02;98.91;101034.75;5415663;26;19999;-61
2024/04/24 05:57:32;;;;;;;15.35;4.85;;;;;;;7.13;99.10;101028.09;5467650;26;20022;-62
2024/04/24 06:00:00;;;;;;;12.75;4.47;;;;;;;7.35;98.91;101035.91;5438486;26;20017;-62
2024/04/24 06:02:27;;;;;;;11.05;4.00;;;;;;;7.42;97.58;101029.03;5423365;26;20002;-62
2024/04/24 06:04:55;;;;;;;11.07;4.55;;;;;;;7.61;97.02;101031.91;5444715;26;20009;-61
2024/04/24 06:07:22;;;;;;;13.27;4.70;;;;;;;7.37;96.12;101025.50;5444147;26;20002;-62
2024/04/24 06:09:50;;;;;;;14.98;4.90;;;;;;;7.49;97.26;101031.44;5438966;26;19995;-60
2024/04/24 06:12:17;;;;;;;15.40;4.20;;;;;;;7.50;97.00;101024.84;5412346;26;20002;-61
2024/04/24 06:14:45;;;;;;;15.93;4.97;;;;;;;7.74;96.71;101025.78;5417740;26;19996;-57
2024/04/24 06:17:12;;;;;;;15.00;4.63;;;;;;;7.85;96.48;101030.03;5425690;26;20017;-56
2024/04/24 06:19:40;;;;;;;16.90;4.90;;;;;;;7.87;94.78;101041.53;5442744;26;20002;-61
2024/04/24 06:22:08;;;;;;;16.27;5.05;;;;;;;7.66;96.16;101021.72;5427808;26;20003;-60
2024/04/24 06:24:35;;;;;;;11.00;4.22;;;;;;;7.49;95.56;101042.41;5441866;26;20017;-59
2024/04/24 06:27:03;;;;;;;12.95;4.53;;;;;;;7.44;96.49;101035.03;5431899;26;20024;-60
2024/04/24 06:29:31;;;;;;;15.65;4.50;;;;;;;7.58;95.51;101035.22;5444621;26;20025;-61
2024/04/24 06:31:59;;;;;;;12.07;3.72;;;;;;;7.73;98.01;101040.56;5440426;26;20753;-61
2024/04/24 06:34:29;;;;;;;13.70;4.05;;;;;;;7.65;96.63;101030.22;5439354;26;20002;-58
2024/04/24 06:36:56;;;;;;;16.90;4.55;;;;;;;8.02;96.44;101034.00;5436847;26;20007;-61
2024/04/24 06:39:23;;;;;;;13.82;3.13;;;;;;;7.65;92.56;101025.53;5418160;26;19998;-61
2024/04/24 06:41:51;;;;;;;12.52;3.53;;;;;;;7.98;94.73;101032.94;5451817;26;20851;-60
2024/04/24 06:44:18;;;;;;;10.88;3.65;;;;;;;7.69;94.21;101025.78;5462166;26;20086;-59
2024/04/24 06:46:46;;;;;;;14.93;4.07;;;;;;;7.89;93.64;101020.97;5447446;26;20486;-57
2024/04/24 06:49:13;;;;;;;12.60;3.92;;;;;;;7.83;93.46;101024.84;5423213;26;20010;-61
2024/04/24 06:51:40;;;;;;;13.60;3.95;;;;;;;7.44;93.41;101026.00;5427888;26;20012;-62
2024/04/24 06:54:08;;;;;;;16.38;3.72;;;;;;;7.44;94.64;101018.59;5437328;26;20002;-63
2024/04/24 06:56:36;;;;;;;13.27;3.55;;;;;;;7.39;93.41;101023.31;5397349;26;20014;-62
2024/04/24 06:59:03;;;;;;;15.35;3.53;;;;;;;7.62;93.38;101025.28;5417374;26;20358;-62
2024/04/24 07:01:31;;;;;;;12.40;3.47;;;;;;;7.46;92.04;101021.84;5427460;26;20343;-63
2024/04/24 07:04:00;;;;;;;14.77;3.58;;;;;;;7.72;91.33;101023.28;5443414;26;19993;-65
2024/04/24 07:06:28;;;;;;;16.35;3.88;;;;;;;7.80;92.27;101024.59;5390101;26;19999;-59
2024/04/24 07:08:55;;;;;;;12.77;3.38;;;;;;;7.89;89.50;101020.97;5401138;26;20014;-62
2024/04/24 07:11:23;;;;;;;16.15;3.28;;;;;;;7.77;89.74;101016.97;5446521;26;20433;-61
2024/04/24 07:13:50;;;;;;;14.20;3.03;;;;;;;7.56;89.66;101021.81;5367654;26;20389;-60
2024/04/24 07:16:18;;;;;;;11.82;3.30;;;;;;;7.59;89.17;101017.66;5411930;26;20030;-61
2024/04/24 07:18:45;;;;;;;13.77;3.38;;;;;;;7.51;88.22;101023.75;5362778;26;20008;-61
2024/04/24 07:21:12;;;;;;;13.02;3.78;;;;;;;7.57;87.97;101020.69;5421790;26;20014;-59
2024/04/24 07:23:40;;;;;;;15.60;2.95;;;;;;;7.41;89.62;101018.34;5374873;26;19995;-61
2024/04/24 07:26:07;;;;;;;13.52;2.80;;;;;;;7.69;88.75;101020.31;5375735;26;19999;-62
2024/04/24 07:28:34;;;;;;;14.02;3.20;;;;;;;7.66;87.56;101021.72;5394150;26;20003;-61
2024/04/24 07:31:02;;;;;;;13.18;3.25;;;;;;;7.61;87.54;101018.19;5419897;26;19996;-61
2024/04/24 07:33:30;;;;;;;12.70;2.80;;;;;;;8.08;86.82;101015.56;5430463;26;20011;-61
2024/04/24 07:35:58;;;;;;;19.05;4.47;;;;;;;8.14;85.17;101013.59;5418124;26;20009;-61
2024/04/24 07:38:25;;;;;;;18.13;4.38;;;;;;;8.10;83.66;101009.78;5437678;26;20003;-61
2024/04/24 07:40:52;;;;;;;17.10;3.35;;;;;;;8.01;83.71;101017.84;5403624;26;19999;-62
2024/04/24 07:43:20;;;;;;;19.30;3.78;;;;;;;8.24;83.33;101021.75;5431434;26;20010;-60
2024/04/24 07:45:47;;;;;;;19.70;3.53;;;;;;;8.15;81.93;101016.03;5399253;26;20014;-62
2024/04/24 07:48:18;;;;;;;14.40;2.38;;;;;;;7.98;82.01;101026.66;5413678;26;20515;-62
2024/04/24 07:50:46;;;;;;;14.98;2.83;;;;;;;8.14;82.84;101016.34;5425452;26;20003;-62
2024/04/24 07:53:13;;;;;;;19.83;3.10;;;;;;;7.91;84.63;101016.00;5413625;26;20004;-61
2024/04/24 07:55:41;;;;;;;11.65;2.70;;;;;;;8.49;83.45;101005.00;5448527;26;20002;-62
2024/04/24 07:58:09;;;;;;;16.05;3.10;;;;;;;8.37;80.74;101021.06;5424659;26;20003;-64
2024/04/24 08:00:36;;;;;;;14.93;3.08;;;;;;;7.76;82.05;101020.78;5368108;26;20011;-65
2024/04/24 08:03:04;;;;;;;14.25;3.10;;;;;;;7.59;82.52;101018.47;5443543;26;20007;-61
2024/04/24 08:05:31;;;;;;;12.55;3.00;;;;;;;7.50;81.29;101022.09;5435665;26;19998;-62
2024/04/24 08:07:59;;;;;;;13.82;2.45;;;;;;;7.74;82.01;101007.38;5380599;26;20004;-62
2024/04/24 08:10:26;;;;;;;12.57;2.70;;;;;;;7.68;81.07;101022.25;5436859;26;20009;-61
2024/04/24 08:12:54;;;;;;;16.85;2.75;;;;;;;7.59;79.39;101009.44;5433469;26;20008;-64
2024/04/24 08:15:21;;;;;;;11.60;2.50;;;;;;;7.63;78.67;101007.75;5416872;26;20520;-62
2024/04/24 08:17:48;;;;;;;16.25;2.92;;;;;;;7.52;79.24;101020.72;5446989;26;20017;-62
2024/04/24 08:20:16;;;;;;;13.35;2.47;;;;;;;7.46;78.54;101021.84;5391330;26;20013;-63
2024/04/24 08:22:43;;;;;;;20.13;3.25;;;;;;;7.68;80.04;101010.47;5331988;26;20029;-61
2024/04/24 08:25:11;;;;;;;15.13;3.08;;;;;;;7.80;78.50;101010.91;5398358;26;20477;-62
2024/04/24 08:27:38;;;;;;;18.33;2.95;;;;;;;7.65;78.29;101003.59;5421014;26;20831;-64
2024/04/24 08:30:06;;;;;;;19.73;3.95;;;;;;;7.78;78.18;101002.13;5382573;26;20007;-61
2024/04/24 08:32:34;;;;;;;36.95;4.75;;;;;;;8.26;78.52;100997.59;5365647;26;20014;-62
2024/04/24 08:35:01;;;;;;;12.60;3.42;;;;;;;8.08;76.39;101001.03;5361675;26;20003;-61
2024/04/24 08:37:29;;;;;;;18.27;2.80;;;;;;;8.04;76.00;100986.28;5395004;26;20018;-63
2024/04/24 08:39:56;;;;;;;13.57;3.40;;;;;;;8.57;75.91;100974.16;5390865;26;19999;-63
2024/04/24 08:42:24;;;;;;;18.90;4.50;;;;;;;8.51;75.06;100987.13;5430049;26;20013;-62
2024/04/24 08:44:53;;;;;;;13.32;3.25;;;;;;;8.57;73.79;100996.94;5421378;26;20013;-63
2024/04/24 08:47:21;;;;;;;14.07;2.80;;;;;;;7.94;73.21;100995.41;5428894;26;20689;-63
2024/04/24 08:49:49;;;;;;;15.10;3.17;;;;;;;7.86;73.91;101001.53;5432704;26;20007;-62
2024/04/24 08:52:19;;;;;;;16.80;3.22;;;;;;;8.12;73.09;100996.59;5438122;26;20390;-63
2024/04/24 08:54:53;;;;;;;9.48;2.50;;;;;;;8.14;71.80;100997.97;5395256;26;20014;-62
2024/04/24 08:57:24;;;;;;;11.48;2.15;;;;;;;7.92;69.48;100986.66;5423324;26;20021;-63
2024/04/24 08:59:53;;;;;;;12.55;3.08;;;;;;;8.07;69.37;100975.53;5430230;26;20041;-63
2024/04/24 09:02:26;;;;;;;12.70;2.63;;;;;;;8.06;67.90;100984.84;5392669;26;20003;-64
2024/04/24 09:04:54;;;;;;;10.07;2.85;;;;;;;7.96;68.61;100976.75;5398444;26;20014;-66
2024/04/24 09:07:22;;;;;;;9.00;2.13;;;;;;;8.15;66.81;100977.63;5391242;26;20002;-63
2024/04/24 09:09:50;;;;;;;14.65;2.72;;;;;;;8.35;64.82;100976.63;5370027;26;20029;-64
2024/04/24 09:12:18;;;;;;;12.73;3.03;;;;;;;8.31;65.36;100970.09;5416808;26;20014;-63
2024/04/24 09:14:46;;;;;;;9.48;2.20;;;;;;;8.16;66.67;100976.50;5403763;26;20009;-64
2024/04/24 09:17:13;;;;;;;11.52;2.80;;;;;;;8.28;66.25;100973.41;5377474;26;20004;-64
2024/04/24 09:19:42;;;;;;;8.30;2.40;;;;;;;8.42;66.76;100966.91;5399482;26;20010;-62
2024/04/24 09:22:09;;;;;;;14.27;2.92;;;;;;;8.47;66.62;100972.34;5410674;26;20338;-63
2024/04/24 09:24:36;;;;;;;10.07;2.50;;;;;;;8.70;65.70;100957.78;5391897;26;20751;-64
2024/04/24 09:27:04;;;;;;;16.15;2.53;;;;;;;8.52;62.89;100964.06;5429819;26;20033;-64
2024/04/24 09:29:31;;;;;;;10.27;2.50;;;;;;;8.51;62.85;100984.38;5435455;26;19999;-63
2024/04/24 09:32:01;;;;;;;11.07;2.65;;;;;;;8.62;62.19;100972.16;5414976;26;20003;-64
2024/04/24 09:34:29;;;;;;;15.90;2.95;;;;;;;8.53;62.60;100962.94;5416005;26;20026;-63
2024/04/24 09:36:56;;;;;;;7.68;2.17;;;;;;;8.38;65.54;100973.28;5429052;26;20024;-62
2024/04/24 09:39:24;;;;;;;23.95;3.95;;;;;;;8.51;66.29;100954.19;5397842;26;20564;-64
2024/04/24 09:41:51;;;;;;;12.60;2.78;;;;;;;8.57;65.59;100960.44;5410345;26;20066;-64
2024/04/24 09:44:21;;;;;;;12.75;2.88;;;;;;;8.84;64.29;100979.81;5410523;26;20861;-63
2024/04/24 09:46:51;;;;;;;13.30;2.65;;;;;;;8.60;62.43;100968.06;5426819;26;20002;-63
2024/04/24 09:49:23;;;;;;;11.35;2.33;;;;;;;8.50;59.96;100955.31;5430371;26;20057;-62
2024/04/24 09:51:50;;;;;;;10.38;2.40;;;;;;;8.57;59.27;100969.50;5434277;26;19999;-62
2024/04/24 09:54:21;;;;;;;9.82;2.78;;;;;;;8.65;58.90;100965.25;5413911;26;20018;-63
2024/04/24 09:56:53;;;;;;;13.52;2.65;;;;;;;8.58;57.50;100971.09;5444389;26;20005;-61
2024/04/24 09:59:22;;;;;;;9.65;2.50;;;;;;;8.57;56.85;100987.88;5443509;26;20104;-63
2024/04/24 10:01:53;;;;;;;8.80;2.42;;;;;;;8.58;56.94;100967.53;5414379;26;20402;-63
2024/04/24 10:04:22;;;;;;;10.63;2.53;;;;;;;8.86;56.05;100958.38;5432054;26;20009;-64
2024/04/24 10:06:50;;;;;;;10.25;2.97;;;;;;;8.95;56.39;100949.19;5433321;26;20099;-64
2024/04/24 10:09:22;;;;;;;14.23;3.20;;;;;;;9.27;56.11;100964.09;5444812;26;20024;-64
2024/04/24 10:11:56;;;;;;;10.20;2.63;;;;;;;9.14;57.19;100962.91;5411159;26;20483;-64
2024/04/24 10:14:24;;;;;;;11.35;3.13;;;;;;;9.22;59.00;100943.00;5383927;26;20836;-64
2024/04/24 10:16:52;;;;;;;13.73;3.42;;;;;;;9.29;59.97;100953.63;5408816;26;20003;-63
2024/04/24 10:19:21;;;;;;;14.48;3.60;;;;;;;9.23;59.47;100946.56;5374085;26;20765;-62
2024/04/24 10:21:48;;;;;;;9.88;2.90;;;;;;;9.07;59.45;100937.72;5450651;26;19995;-62
2024/04/24 10:24:18;;;;;;;11.15;2.88;;;;;;;9.25;58.43;100949.81;5375765;26;19999;-63
2024/04/24 10:26:46;;;;;;;11.25;3.10;;;;;;;9.13;58.34;100933.81;5400678;26;20007;-62
2024/04/24 10:29:16;;;;;;;10.00;2.63;;;;;;;9.27;57.09;100934.69;5385553;26;20007;-63
2024/04/24 10:31:45;;;;;;;15.60;3.35;;;;;;;9.22;56.04;100932.03;5423922;26;20017;-62
2024/04/24 10:34:13;;;;;;;12.25;3.22;;;;;;;9.30;55.33;100931.31;5442571;26;19999;-67
2024/04/24 10:36:40;;;;;;;14.35;3.00;;;;;;;9.38;54.16;100947.13;5400296;26;20032;-62
2024/04/24 10:39:10;;;;;;;10.38;2.95;;;;;;;9.18;52.67;100925.47;5411618;26;20003;-61
2024/04/24 10:41:38;;;;;;;12.43;2.60;;;;;;;9.39;52.70;100925.97;5451380;26;20003;-66
2024/04/24 10:44:07;;;;;;;12.20;2.90;;;;;;;9.37;53.85;100912.53;5392636;26;19994;-63
2024/04/24 10:46:37;;;;;;;12.67;3.53;;;;;;;9.81;54.75;100901.00;5417898;26;20008;-62
2024/04/24 10:49:09;;;;;;;13.63;3.47;;;;;;;9.61;53.52;100898.63;5419243;26;20002;-62
2024/04/24 10:51:45;;;;;;;8.93;2.70;;;;;;;9.37;53.77;100911.69;5466739;26;19998;-62
2024/04/24 10:54:16;;;;;;;12.05;3.22;;;;;;;9.66;54.26;100901.31;5447502;26;20005;-62
2024/04/24 10:56:47;;;;;;;9.18;2.80;;;;;;;9.97;54.48;100902.34;5444670;26;19995;-62
2024/04/24 10:59:16;;;;;;;10.88;2.60;;;;;;;10.08;53.82;100901.03;5400028;26;20850;-62
2024/04/24 11:01:44;;;;;;;13.65;3.40;;;;;;;9.74;53.69;100914.34;5436367;26;20013;-56
2024/04/24 11:04:26;;;;;;;14.07;3.03;;;;;;;10.16;55.31;100903.09;5424687;26;20003;-59
2024/04/24 11:06:54;;;;;;;17.15;10.63;;;;;;;9.93;52.92;100915.91;5412745;26;20003;-65
2024/04/24 11:09:22;;;;;;;9.95;3.13;;;;;;;9.66;54.08;100909.56;5412340;26;20003;-63
2024/04/24 11:11:50;;;;;;;10.10;2.78;;;;;;;9.24;54.02;100916.03;5457635;26;20013;-62
2024/04/24 11:14:18;;;;;;;12.48;4.18;;;;;;;9.32;54.42;100922.78;5416035;26;20010;-62
2024/04/24 11:16:55;;;;;;;11.85;2.72;;;;;;;9.24;54.65;100904.22;5423599;26;20013;-62
2024/04/24 11:19:23;;;;;;;11.25;3.10;;;;;;;9.50;54.22;100905.44;5414065;26;20008;-63
2024/04/24 11:21:51;;;;;;;13.73;3.55;;;;;;;9.60;53.98;100905.25;5428158;26;20003;-62
2024/04/24 11:24:31;;;;;;;12.40;4.78;;;;;;;9.63;54.42;100904.63;5413008;26;19996;-62
2024/04/24 11:26:59;;;;;;;13.18;4.40;;;;;;;9.75;54.22;100896.72;5390058;26;20007;-64
2024/04/24 11:29:35;;;;;;;17.45;6.88;;;;;;;10.07;53.33;100900.22;5423861;26;20004;-64
2024/04/24 11:32:03;;;;;;;12.70;3.67;;;;;;;9.78;53.84;100898.88;5392627;26;20863;-63